Wakefield, New York
Current Conditions -  °F | °C
As of 6:51 PM on Wednesday 26 Nov 2014 (Local Time) from KLGA Reporting Station
Light Snow Light Snow  
Wind Chill: 25°   Ceiling: 900
Heat Index: 36°   Visibility: 4mi
Dew Point: 34°   Wind: 21mph
Humidity: 93%   Direction: 350°N
Pressure: 29.77"   Gusts: 31mph
Location:  40.8905°N, 73.8471°W
Report Text: KLGA 262351Z 35018G27KT 4SM -RASN BR BKN009 BKN013 OVC023 02/01 A2977 RMK AO2 PK WND 34027/2347 SNE2253B26 SLP082 P0003 60040 T00220011 10028 20011 56020
Loading
Personal Weather Stations






























Interactive Weather Map New forecast layout! Learn more

10-Day Weather Forecast

Advertisements
Track Severe Weather on mobile